Terminal Aerodrome Forecast
Issued by NWS

Current Version | Previous Version | Text Only | Print | Product List | Glossary On
Versions: 1 2 3 4 5 6 7 8 9 10 11 12 13 14 15 16 17
000
FTUS42 KTBW 212300
TAFPIE
TAF
KPIE 212329Z 2200/2224 VRB03KT P6SM SCT035 BKN150
     FM221200 VRB03KT P6SM VCSH SCT025 BKN040
     FM221500 19005KT P6SM VCSH SCT025 BKN035
     FM221800 22006KT P6SM VCTS BKN035CB=

USA.gov is the U.S. government's official web portal to all federal, state and local government web resources and services.